Time;durP1;ratioP1;P1;durP2;ratioP2;P2;SDS_P1;SDS_P2;PMS_P1;PMS_P2;Temp;Humidity;BMP_temperature;BMP_pressure;BME280_temperature;BME280_humidity;BME280_pressure;Samples;Min_cycle;Max_cycle;Signal;HPM_P1;HPM_P2
2023/12/22 00:02:17;;;;;;;10.88;2.65;;;;;;;3.66;74.12;98122.41;4916478;29;20581;-72
2023/12/22 00:04:44;;;;;;;17.42;2.28;;;;;;;3.56;73.03;98123.34;4916565;29;20118;-72
2023/12/22 00:07:11;;;;;;;16.65;2.58;;;;;;;3.51;73.49;98120.28;4916766;29;20055;-71
2023/12/22 00:09:37;;;;;;;12.32;2.20;;;;;;;3.49;73.95;98124.13;4916574;29;20564;-72
2023/12/22 00:12:05;;;;;;;17.38;3.05;;;;;;;3.40;72.97;98112.47;4917267;29;20124;-72
2023/12/22 00:14:31;;;;;;;12.60;2.38;;;;;;;3.36;72.84;98127.16;4916451;29;20553;-72
2023/12/22 00:17:00;;;;;;;22.15;2.65;;;;;;;3.32;73.63;98136.50;4916114;29;20116;-72
2023/12/22 00:19:27;;;;;;;15.25;2.47;;;;;;;3.38;71.39;98151.16;4916365;29;20059;-72
2023/12/22 00:21:53;;;;;;;21.55;2.83;;;;;;;3.31;71.34;98145.56;4916475;29;20044;-72
2023/12/22 00:24:20;;;;;;;19.15;3.40;;;;;;;3.30;70.72;98149.22;4916311;29;20059;-71
2023/12/22 00:26:47;;;;;;;24.20;3.50;;;;;;;3.27;71.81;98149.50;4916403;29;20052;-71
2023/12/22 00:29:14;;;;;;;34.55;3.78;;;;;;;3.34;70.49;98149.75;4899772;29;20450;-72
2023/12/22 00:31:43;;;;;;;34.95;5.60;;;;;;;3.33;69.01;98148.91;4916637;29;20056;-72
2023/12/22 00:34:09;;;;;;;28.52;3.42;;;;;;;3.34;69.50;98145.25;4916743;29;20111;-72
2023/12/22 00:36:36;;;;;;;25.17;3.35;;;;;;;3.44;68.58;98171.97;4916930;29;20051;-72
2023/12/22 00:39:03;;;;;;;24.50;3.38;;;;;;;3.51;67.30;98160.47;4897566;29;20076;-72
2023/12/22 00:41:29;;;;;;;21.50;3.80;;;;;;;3.51;68.71;98148.91;4897597;29;20048;-72
2023/12/22 00:43:56;;;;;;;30.52;4.07;;;;;;;3.54;69.13;98189.63;4897472;29;20053;-72
2023/12/22 00:46:23;;;;;;;26.25;4.60;;;;;;;3.53;69.08;98177.25;4897258;29;20060;-72
2023/12/22 00:48:49;;;;;;;22.80;3.95;;;;;;;3.54;69.10;98178.06;4913611;29;20056;-71
2023/12/22 00:51:16;;;;;;;18.83;3.50;;;;;;;3.54;70.04;98178.06;4916676;29;20056;-72
2023/12/22 00:53:42;;;;;;;23.58;3.35;;;;;;;3.51;71.38;98183.75;4916633;29;20055;-72
2023/12/22 00:56:09;;;;;;;11.80;2.65;;;;;;;3.39;72.88;98196.53;4916331;29;20052;-71
2023/12/22 00:58:36;;;;;;;15.40;2.75;;;;;;;3.50;72.82;98207.03;4916874;29;20052;-71
2023/12/22 01:01:03;;;;;;;15.68;2.28;;;;;;;3.48;73.11;98201.00;4935346;29;20131;-72
2023/12/22 01:03:29;;;;;;;13.10;2.78;;;;;;;3.41;74.32;98205.25;4935276;29;20091;-72
2023/12/22 01:05:56;;;;;;;14.13;2.22;;;;;;;3.38;74.53;98216.28;4934822;29;20055;-72
2023/12/22 01:08:22;;;;;;;15.27;2.38;;;;;;;3.34;74.65;98204.19;4934490;29;20048;-71
2023/12/22 01:10:49;;;;;;;18.65;3.25;;;;;;;3.35;74.52;98229.13;4934771;29;20051;-71
2023/12/22 01:13:16;;;;;;;17.85;2.58;;;;;;;3.29;74.95;98233.28;4934899;29;20107;-71
2023/12/22 01:15:43;;;;;;;20.98;3.17;;;;;;;3.39;74.33;98227.84;4933232;29;20047;-71
2023/12/22 01:18:11;;;;;;;23.65;3.45;;;;;;;3.38;74.10;98231.53;4934961;29;20106;-71
2023/12/22 01:20:38;;;;;;;23.63;3.10;;;;;;;3.27;74.75;98237.91;4934557;29;20481;-71
2023/12/22 01:23:04;;;;;;;24.65;2.83;;;;;;;3.30;75.92;98240.31;4935542;29;20114;-71
2023/12/22 01:25:31;;;;;;;18.10;3.20;;;;;;;3.31;75.47;98231.28;4934707;29;20066;-71
2023/12/22 01:27:57;;;;;;;24.23;3.75;;;;;;;3.38;75.01;98243.09;4934760;29;20048;-70
2023/12/22 01:30:24;;;;;;;17.77;3.30;;;;;;;3.37;74.79;98240.53;4934450;29;20060;-71
2023/12/22 01:32:50;;;;;;;23.83;3.13;;;;;;;3.39;75.00;98230.53;4934330;29;20421;-71
2023/12/22 01:35:17;;;;;;;22.05;3.30;;;;;;;3.35;75.32;98243.38;4933250;29;20131;-72
2023/12/22 01:37:43;;;;;;;22.63;3.88;;;;;;;3.32;75.49;98246.38;4934428;29;20528;-72
2023/12/22 01:40:10;;;;;;;21.55;3.30;;;;;;;3.22;75.88;98242.91;4934284;29;20497;-72
2023/12/22 01:42:39;;;;;;;25.40;3.35;;;;;;;3.23;76.23;98253.47;4934033;29;20481;-72
2023/12/22 01:45:07;;;;;;;20.58;3.70;;;;;;;3.18;76.26;98250.38;4934306;29;20052;-72
2023/12/22 01:47:35;;;;;;;30.27;3.38;;;;;;;3.19;76.92;98260.13;4930214;29;20078;-72
2023/12/22 01:50:02;;;;;;;27.58;3.45;;;;;;;3.22;75.80;98253.63;4914408;29;20067;-72
2023/12/22 01:52:29;;;;;;;20.83;2.75;;;;;;;3.22;76.23;98242.91;4914765;29;20053;-71
2023/12/22 01:54:56;;;;;;;24.27;3.65;;;;;;;3.22;75.91;98262.50;4914607;29;20127;-71
2023/12/22 01:57:22;;;;;;;19.30;3.60;;;;;;;3.19;76.41;98261.97;4914771;29;20052;-73
2023/12/22 01:59:50;;;;;;;17.05;3.95;;;;;;;3.17;76.03;98266.59;4914699;29;20048;-70
2023/12/22 02:02:16;;;;;;;20.77;3.08;;;;;;;3.15;76.77;98260.56;4914855;29;20056;-72
2023/12/22 02:04:44;;;;;;;27.00;3.55;;;;;;;3.19;76.08;98253.94;4914436;29;20048;-71
2023/12/22 02:07:24;;;;;;;21.05;3.40;;;;;;;3.22;76.46;98280.41;4914081;29;20517;-71
2023/12/22 02:10:09;;;;;;;18.17;3.72;;;;;;;3.19;76.11;98275.34;4930377;29;20194;-71
2023/12/22 02:12:37;;;;;;;25.75;3.60;;;;;;;3.29;75.90;98270.78;4932211;29;20198;-71
2023/12/22 02:15:05;;;;;;;21.92;3.28;;;;;;;3.19;76.16;98267.31;4931175;29;20055;-72
2023/12/22 02:17:41;;;;;;;22.80;3.55;;;;;;;3.20;77.03;98271.69;4932090;29;20047;-72
2023/12/22 02:20:09;;;;;;;27.33;3.25;;;;;;;3.19;76.16;98278.03;4931548;29;20134;-72
2023/12/22 02:22:36;;;;;;;20.63;3.35;;;;;;;3.15;76.27;98276.63;4932204;29;20044;-72
2023/12/22 02:25:03;;;;;;;14.75;2.47;;;;;;;3.00;76.88;98279.81;4931718;28;20418;-72
2023/12/22 02:27:40;;;;;;;25.48;3.33;;;;;;;3.02;77.31;98285.00;4932090;29;20126;-72
2023/12/22 02:30:15;;;;;;;19.70;3.50;;;;;;;3.07;76.71;98276.53;4931671;29;20051;-72
2023/12/22 02:32:44;;;;;;;22.75;3.95;;;;;;;3.06;77.21;98280.19;4931750;29;20094;-72
2023/12/22 02:35:19;;;;;;;16.25;2.90;;;;;;;3.00;77.26;98269.09;4931627;29;20054;-70
2023/12/22 02:37:47;;;;;;;19.58;3.10;;;;;;;2.97;77.84;98281.91;4931570;29;20135;-70
2023/12/22 02:40:15;;;;;;;19.77;3.17;;;;;;;3.00;76.99;98271.78;4916247;29;20498;-70
2023/12/22 02:42:43;;;;;;;14.80;2.47;;;;;;;3.08;76.78;98278.19;4914540;29;20056;-70
2023/12/22 02:45:15;;;;;;;22.98;3.10;;;;;;;2.96;78.50;98275.72;4916011;29;20465;-71
2023/12/22 02:47:41;;;;;;;20.02;2.13;;;;;;;2.96;78.16;98265.00;4916740;29;20378;-71
2023/12/22 02:50:08;;;;;;;27.55;3.40;;;;;;;2.93;77.21;98270.66;4915939;29;20501;-71
2023/12/22 02:52:36;;;;;;;24.83;3.72;;;;;;;2.93;78.00;98265.31;4916596;29;20103;-71
2023/12/22 02:55:03;;;;;;;15.55;2.50;;;;;;;2.93;77.98;98270.66;4897494;29;20503;-71
2023/12/22 02:57:30;;;;;;;14.27;2.55;;;;;;;2.96;77.88;98265.00;4897878;29;20052;-70
2023/12/22 02:59:57;;;;;;;15.70;1.67;;;;;;;2.91;78.03;98261.94;4897324;29;20044;-70
2023/12/22 03:02:24;;;;;;;17.17;2.70;;;;;;;2.92;77.68;98258.28;4897797;29;20510;-70
2023/12/22 03:04:51;;;;;;;15.70;2.50;;;;;;;2.90;77.31;98252.19;4896948;29;20057;-71
2023/12/22 03:07:18;;;;;;;21.98;2.70;;;;;;;2.94;76.80;98261.66;4897287;29;20083;-70
2023/12/22 03:09:44;;;;;;;16.58;2.00;;;;;;;2.85;77.18;98259.84;4898291;29;20413;-70
2023/12/22 03:12:11;;;;;;;13.82;1.95;;;;;;;2.87;77.34;98271.25;4897643;29;20113;-70
2023/12/22 03:14:37;;;;;;;11.75;2.45;;;;;;;2.88;76.31;98278.28;4898977;29;20056;-70
2023/12/22 03:17:05;;;;;;;21.77;2.75;;;;;;;2.86;77.08;98274.91;4898210;29;20056;-72
2023/12/22 03:19:33;;;;;;;19.73;2.67;;;;;;;2.96;76.96;98273.03;4897528;29;20052;-72
2023/12/22 03:21:59;;;;;;;13.95;2.30;;;;;;;2.92;77.21;98279.69;4896980;29;20063;-72
2023/12/22 03:24:28;;;;;;;19.85;2.58;;;;;;;2.91;77.23;98280.69;4898079;29;20104;-71
2023/12/22 03:26:55;;;;;;;14.57;2.38;;;;;;;2.89;77.38;98290.69;4897564;29;20080;-72
2023/12/22 03:29:23;;;;;;;19.75;2.67;;;;;;;2.92;77.46;98294.91;4897578;29;20056;-72
2023/12/22 03:31:51;;;;;;;17.30;2.42;;;;;;;2.95;77.20;98279.41;4897298;29;20044;-71
2023/12/22 03:34:18;;;;;;;18.30;2.97;;;;;;;2.85;76.87;98283.94;4897995;29;20045;-71
2023/12/22 03:36:48;;;;;;;13.20;2.38;;;;;;;2.90;77.79;98281.66;4898334;29;20055;-71
2023/12/22 03:39:15;;;;;;;21.27;3.92;;;;;;;2.97;77.37;98282.75;4897488;29;20048;-71
2023/12/22 03:41:42;;;;;;;17.10;2.55;;;;;;;2.96;76.53;98286.44;4896012;29;20486;-71
2023/12/22 03:44:10;;;;;;;18.15;2.63;;;;;;;2.97;76.22;98273.88;4897159;29;20140;-71
2023/12/22 03:46:36;;;;;;;19.75;2.40;;;;;;;2.98;76.90;98275.56;4896735;29;20056;-72
2023/12/22 03:49:03;;;;;;;18.83;2.95;;;;;;;2.99;77.17;98275.41;4896314;29;20049;-71
2023/12/22 03:51:30;;;;;;;8.50;1.77;;;;;;;3.05;77.15;98291.91;4896624;29;20112;-71
2023/12/22 03:53:56;;;;;;;9.60;1.85;;;;;;;3.03;77.02;98297.41;4903445;29;20052;-71
2023/12/22 03:56:23;;;;;;;14.20;1.92;;;;;;;3.07;77.55;98296.09;4916516;29;20048;-71
2023/12/22 03:58:49;;;;;;;11.13;2.00;;;;;;;3.10;77.23;98287.81;4916050;29;20141;-71
2023/12/22 04:01:17;;;;;;;8.43;1.23;;;;;;;3.09;77.70;98290.59;4917202;29;20509;-71
2023/12/22 04:03:44;;;;;;;11.82;1.50;;;;;;;3.12;76.88;98295.69;4919901;29;20072;-71
2023/12/22 04:06:10;;;;;;;11.18;1.60;;;;;;;3.07;76.90;98292.59;4915914;29;20052;-71
2023/12/22 04:08:37;;;;;;;9.88;1.83;;;;;;;3.11;77.61;98297.50;4914801;29;20048;-71
2023/12/22 04:11:03;;;;;;;9.10;1.40;;;;;;;3.11;78.15;98302.03;4915486;29;20107;-71
2023/12/22 04:13:30;;;;;;;10.48;1.08;;;;;;;3.07;78.77;98298.78;4916284;29;20090;-71
2023/12/22 04:15:56;;;;;;;4.68;1.00;;;;;;;3.00;79.52;98303.91;4915737;29;20058;-71
2023/12/22 04:18:23;;;;;;;3.20;0.90;;;;;;;2.98;80.23;98305.03;4914227;29;20111;-71
2023/12/22 04:20:53;;;;;;;7.93;1.38;;;;;;;2.89;80.64;98289.84;4915206;29;20051;-71
2023/12/22 04:23:20;;;;;;;4.90;1.20;;;;;;;2.89;80.91;98296.03;4916245;29;20052;-71
2023/12/22 04:25:47;;;;;;;8.65;1.50;;;;;;;2.85;82.77;98285.78;4916508;29;20096;-71
2023/12/22 04:28:13;;;;;;;6.05;1.20;;;;;;;2.79;82.34;98273.81;4916553;29;20052;-71
2023/12/22 04:30:40;;;;;;;6.85;1.35;;;;;;;2.74;82.45;98281.47;4916402;29;20076;-71
2023/12/22 04:33:07;;;;;;;10.13;1.35;;;;;;;2.75;82.39;98275.13;4915005;29;20561;-71
2023/12/22 04:35:33;;;;;;;9.07;1.27;;;;;;;2.67;82.80;98273.16;4916373;29;20123;-72
2023/12/22 04:38:00;;;;;;;8.20;1.63;;;;;;;2.63;82.92;98269.09;4915353;29;20059;-71
2023/12/22 04:40:28;;;;;;;12.05;1.20;;;;;;;2.70;83.78;98277.38;4915873;29;20417;-72
2023/12/22 04:42:55;;;;;;;13.00;1.63;;;;;;;2.74;82.71;98273.44;4914954;29;20497;-71
2023/12/22 04:45:21;;;;;;;12.30;1.50;;;;;;;2.71;83.30;98271.03;4915812;29;20052;-72
2023/12/22 04:47:48;;;;;;;7.10;1.45;;;;;;;2.75;83.32;98272.44;4914458;29;20055;-72
2023/12/22 04:50:15;;;;;;;6.43;1.60;;;;;;;2.77;82.88;98256.22;4898663;29;20044;-72
2023/12/22 04:52:42;;;;;;;12.30;2.15;;;;;;;2.79;83.00;98273.81;4915175;29;20055;-72
2023/12/22 04:55:08;;;;;;;8.73;1.48;;;;;;;2.69;84.20;98270.34;4895817;29;20112;-72
2023/12/22 04:57:35;;;;;;;10.05;1.35;;;;;;;2.67;84.51;98293.72;4895302;29;20076;-72
2023/12/22 05:00:02;;;;;;;8.45;1.95;;;;;;;2.66;85.21;98300.06;4878917;29;20426;-72
2023/12/22 05:02:29;;;;;;;9.48;1.33;;;;;;;2.65;84.83;98303.75;4895957;29;20539;-72
2023/12/22 05:04:56;;;;;;;4.18;0.90;;;;;;;2.54;85.75;98295.88;4896246;29;20082;-72
2023/12/22 05:07:23;;;;;;;10.90;1.20;;;;;;;2.36;86.79;98310.00;4895829;29;20132;-71
2023/12/22 05:09:51;;;;;;;4.93;1.10;;;;;;;2.28;86.61;98307.19;4896544;29;20419;-71
2023/12/22 05:12:19;;;;;;;5.82;1.10;;;;;;;2.30;86.18;98291.84;4895748;29;20513;-72
2023/12/22 05:14:46;;;;;;;7.32;1.17;;;;;;;2.19;86.86;98285.81;4896993;29;20055;-72
2023/12/22 05:17:13;;;;;;;7.15;1.40;;;;;;;2.18;87.23;98290.31;4897388;29;20072;-72
2023/12/22 05:19:39;;;;;;;7.78;1.13;;;;;;;2.17;87.13;98277.94;4898485;29;20116;-72
2023/12/22 05:22:06;;;;;;;8.85;1.17;;;;;;;2.13;87.10;98281.84;4898262;29;20131;-72
2023/12/22 05:24:32;;;;;;;9.27;1.42;;;;;;;2.11;87.18;98289.19;4896545;29;20060;-72
2023/12/22 05:26:59;;;;;;;9.88;1.88;;;;;;;2.13;87.25;98277.34;4894011;29;20134;-72
2023/12/22 05:29:25;;;;;;;5.35;0.90;;;;;;;2.17;87.26;98280.59;4896373;29;20057;-72
2023/12/22 05:31:52;;;;;;;4.15;0.73;;;;;;;2.12;87.29;98290.88;4895497;29;20579;-72
2023/12/22 05:34:18;;;;;;;8.18;1.08;;;;;;;2.14;86.90;98281.72;4895329;29;20052;-72
2023/12/22 05:36:45;;;;;;;8.48;1.02;;;;;;;2.06;88.07;98284.25;4896885;29;20057;-72
2023/12/22 05:39:12;;;;;;;6.22;1.27;;;;;;;2.00;87.97;98289.34;4896078;29;20119;-71
2023/12/22 05:41:38;;;;;;;8.25;1.13;;;;;;;2.04;88.14;98290.72;4896499;29;20053;-71
2023/12/22 05:44:06;;;;;;;7.47;1.20;;;;;;;2.06;88.06;98283.41;4895247;29;20056;-71
2023/12/22 05:46:41;;;;;;;5.63;0.90;;;;;;;2.06;88.22;98276.22;4895373;29;20059;-72
2023/12/22 05:49:08;;;;;;;7.50;1.33;;;;;;;2.04;87.60;98269.34;4895674;29;20153;-71
2023/12/22 05:51:39;;;;;;;9.30;1.02;;;;;;;1.92;88.17;98281.16;4896129;29;20052;-72
2023/12/22 05:54:10;;;;;;;7.00;1.10;;;;;;;1.88;88.02;98266.38;4895620;29;20524;-71
2023/12/22 05:56:37;;;;;;;12.57;1.77;;;;;;;1.86;87.46;98285.25;4893704;29;20051;-71
2023/12/22 05:59:03;;;;;;;7.70;1.48;;;;;;;1.83;87.27;98281.03;4895219;29;20072;-71
2023/12/22 06:01:30;;;;;;;11.55;1.60;;;;;;;1.91;86.27;98290.19;4895913;29;20501;-72
2023/12/22 06:03:57;;;;;;;13.60;1.20;;;;;;;1.86;85.74;98275.38;4895814;29;20140;-71
2023/12/22 06:06:23;;;;;;;9.18;1.67;;;;;;;1.84;87.19;98285.38;4893972;29;20045;-71
2023/12/22 06:08:50;;;;;;;9.73;2.05;;;;;;;1.85;86.21;98286.22;4895975;29;20549;-71
2023/12/22 06:11:17;;;;;;;10.68;1.42;;;;;;;1.94;84.52;98290.72;4896875;29;20419;-71
2023/12/22 06:13:43;;;;;;;12.23;1.85;;;;;;;1.94;84.77;98292.56;4916260;29;20458;-72
2023/12/22 06:16:14;;;;;;;7.07;1.15;;;;;;;1.83;85.06;98306.91;4915491;29;20059;-71
2023/12/22 06:18:41;;;;;;;11.98;1.58;;;;;;;1.91;85.01;98306.22;4914728;29;20048;-71
2023/12/22 06:21:09;;;;;;;7.18;1.30;;;;;;;1.97;83.03;98302.97;4913698;29;20110;-71
2023/12/22 06:23:36;;;;;;;5.15;1.35;;;;;;;1.91;82.96;98303.53;4914740;29;20107;-72
2023/12/22 06:26:13;;;;;;;5.13;0.77;;;;;;;1.99;82.61;98306.38;4914920;29;20469;-71
2023/12/22 06:28:39;;;;;;;6.05;1.00;;;;;;;2.01;82.32;98293.69;4915247;29;20044;-71
2023/12/22 06:31:09;;;;;;;4.78;0.73;;;;;;;1.99;82.22;98301.00;4914002;29;20060;-71
2023/12/22 06:33:35;;;;;;;3.47;0.82;;;;;;;1.92;82.56;98294.53;4914373;29;20048;-71
2023/12/22 06:36:02;;;;;;;6.57;0.80;;;;;;;1.95;82.95;98288.91;4913479;29;20048;-72
2023/12/22 06:38:31;;;;;;;5.80;0.70;;;;;;;2.00;83.02;98297.34;4914192;29;20107;-71
2023/12/22 06:40:57;;;;;;;3.08;0.85;;;;;;;2.03;83.14;98297.91;4914378;29;20099;-72
2023/12/22 06:43:24;;;;;;;10.27;0.90;;;;;;;2.09;83.17;98285.81;4914023;29;20473;-72
2023/12/22 06:45:54;;;;;;;8.05;1.00;;;;;;;2.13;83.62;98287.19;4912474;29;20487;-72
2023/12/22 06:48:21;;;;;;;6.72;1.05;;;;;;;2.10;84.22;98288.34;4913030;29;20075;-72
2023/12/22 06:50:48;;;;;;;7.03;1.30;;;;;;;2.16;83.64;98281.56;4914476;29;20052;-72
2023/12/22 06:53:15;;;;;;;9.20;1.27;;;;;;;2.01;84.64;98289.19;4909779;29;20080;-72
2023/12/22 06:55:51;;;;;;;7.25;1.20;;;;;;;2.06;85.18;98275.38;4913279;29;20070;-72
2023/12/22 06:58:21;;;;;;;6.80;1.05;;;;;;;2.07;84.87;98288.63;4913056;29;20498;-72
2023/12/22 07:00:47;;;;;;;7.15;0.98;;;;;;;2.09;84.34;98280.47;4893863;29;20052;-72
2023/12/22 07:03:16;;;;;;;9.07;1.33;;;;;;;2.07;84.17;98290.44;4895677;29;20474;-71
2023/12/22 07:05:44;;;;;;;5.20;1.00;;;;;;;2.02;84.30;98290.03;4912560;29;20135;-71
2023/12/22 07:08:11;;;;;;;4.90;1.00;;;;;;;2.10;84.36;98314.22;4912793;29;20119;-71
2023/12/22 07:10:38;;;;;;;3.70;0.98;;;;;;;2.17;83.72;98323.38;4911681;29;20497;-71
2023/12/22 07:13:06;;;;;;;18.13;1.58;;;;;;;2.25;83.04;98323.50;4912340;29;20063;-71
2023/12/22 07:15:33;;;;;;;9.77;1.50;;;;;;;2.26;81.67;98333.25;4912195;29;20059;-71
2023/12/22 07:17:59;;;;;;;11.63;1.63;;;;;;;2.24;82.96;98337.00;4910509;29;20052;-71
2023/12/22 07:20:26;;;;;;;6.30;1.00;;;;;;;2.13;84.00;98367.41;4912275;29;20052;-74
2023/12/22 07:22:53;;;;;;;10.23;1.80;;;;;;;2.22;84.09;98377.28;4912110;29;20470;-70
2023/12/22 07:25:21;;;;;;;16.17;1.60;;;;;;;2.21;83.36;98375.59;4912109;29;20052;-72
2023/12/22 07:27:49;;;;;;;7.97;1.00;;;;;;;2.26;82.64;98375.19;4912933;29;20130;-72
2023/12/22 07:30:17;;;;;;;8.80;1.70;;;;;;;2.22;82.92;98371.94;4914876;29;20168;-72
2023/12/22 07:32:47;;;;;;;7.35;1.10;;;;;;;2.20;82.68;98368.56;4915689;29;20059;-73
2023/12/22 07:35:14;;;;;;;11.68;1.60;;;;;;;2.28;81.05;98382.06;4915401;29;20465;-73
2023/12/22 07:37:43;;;;;;;6.18;0.95;;;;;;;2.22;81.24;98379.09;4915791;29;20052;-70
2023/12/22 07:40:11;;;;;;;14.68;1.75;;;;;;;2.23;81.77;98373.63;4915819;29;20074;-72
2023/12/22 07:42:37;;;;;;;11.80;1.20;;;;;;;2.27;81.89;98380.41;4916630;29;20048;-72
2023/12/22 07:45:05;;;;;;;11.75;2.30;;;;;;;2.35;80.88;98377.88;4915445;29;20052;-71
2023/12/22 07:47:32;;;;;;;10.02;1.42;;;;;;;2.35;80.20;98382.34;4915602;29;20056;-71
2023/12/22 07:50:00;;;;;;;14.02;1.73;;;;;;;2.37;80.51;98372.38;4915138;29;20056;-71
2023/12/22 07:52:29;;;;;;;6.50;1.52;;;;;;;2.36;80.34;98374.19;4915630;29;20048;-71
2023/12/22 07:54:56;;;;;;;14.27;1.85;;;;;;;2.41;80.39;98373.75;4932753;29;20140;-72
2023/12/22 07:57:23;;;;;;;8.15;1.70;;;;;;;2.45;79.70;98383.22;4933128;29;20051;-71
2023/12/22 07:59:49;;;;;;;14.68;2.25;;;;;;;2.45;79.47;98393.06;4933332;29;20055;-71
2023/12/22 08:02:16;;;;;;;22.08;5.13;;;;;;;2.41;79.10;98387.97;4935511;29;20421;-71
2023/12/22 08:04:42;;;;;;;8.52;1.95;;;;;;;2.43;78.73;98374.44;4935158;29;20048;-71
2023/12/22 08:07:09;;;;;;;9.45;1.30;;;;;;;2.46;78.71;98382.22;4934558;29;20058;-73
2023/12/22 08:09:36;;;;;;;11.48;1.45;;;;;;;2.43;78.62;98395.84;4934403;29;20054;-72
2023/12/22 08:12:03;;;;;;;10.60;1.63;;;;;;;2.42;77.98;98400.38;4933957;29;20559;-72
2023/12/22 08:14:31;;;;;;;12.98;1.48;;;;;;;2.35;79.23;98401.06;4933087;29;20043;-72
2023/12/22 08:16:57;;;;;;;6.80;1.25;;;;;;;2.41;78.54;98397.84;4934631;29;20099;-72
2023/12/22 08:19:25;;;;;;;6.10;0.93;;;;;;;2.33;79.52;98403.88;4934267;29;20059;-72
2023/12/22 08:21:56;;;;;;;3.40;0.88;;;;;;;2.27;79.70;98391.09;4934050;29;20051;-72
2023/12/22 08:24:24;;;;;;;4.50;0.88;;;;;;;2.29;80.40;98405.16;4934051;29;20154;-72
2023/12/22 08:26:51;;;;;;;7.00;1.23;;;;;;;2.24;79.58;98403.88;4932699;29;20047;-72
2023/12/22 08:29:21;;;;;;;16.92;1.73;;;;;;;2.22;79.98;98430.78;4935104;29;20079;-72
2023/12/22 08:31:47;;;;;;;10.00;1.30;;;;;;;2.18;79.53;98434.72;4934782;29;20130;-71
2023/12/22 08:34:14;;;;;;;13.07;1.08;;;;;;;2.13;80.08;98448.50;4934930;29;20059;-72
2023/12/22 08:36:42;;;;;;;10.70;1.48;;;;;;;2.14;79.85;98438.63;4933659;29;20066;-72
2023/12/22 08:39:10;;;;;;;9.15;1.40;;;;;;;2.22;79.98;98444.13;4932862;29;20086;-71
2023/12/22 08:41:37;;;;;;;13.23;1.55;;;;;;;2.22;79.43;98430.78;4932777;29;20453;-71
2023/12/22 08:44:06;;;;;;;9.55;1.30;;;;;;;2.22;78.67;98462.03;4933410;29;20047;-71
2023/12/22 08:46:33;;;;;;;13.13;1.75;;;;;;;2.15;79.13;98456.38;4933666;29;20505;-71
2023/12/22 08:49:01;;;;;;;14.80;1.88;;;;;;;2.13;79.81;98463.69;4917012;29;20056;-71
2023/12/22 08:51:28;;;;;;;11.07;1.52;;;;;;;2.21;78.10;98466.53;4914057;29;20099;-72
2023/12/22 08:53:55;;;;;;;11.25;1.55;;;;;;;2.26;78.33;98458.94;4904911;29;20119;-72
2023/12/22 08:56:22;;;;;;;8.82;1.75;;;;;;;2.37;77.75;98472.19;4878512;29;20048;-72
2023/12/22 08:58:52;;;;;;;15.90;2.85;;;;;;;2.35;77.45;98471.50;4895471;29;20086;-72
2023/12/22 09:01:19;;;;;;;15.68;2.35;;;;;;;2.42;77.12;98474.44;4895349;29;20067;-72
2023/12/22 09:03:46;;;;;;;10.63;1.98;;;;;;;2.41;77.87;98465.56;4895310;29;20537;-72
2023/12/22 09:06:21;;;;;;;11.23;1.77;;;;;;;2.50;76.74;98481.75;4893423;29;20513;-71
2023/12/22 09:08:49;;;;;;;16.63;1.92;;;;;;;2.62;76.38;98470.78;4913156;29;20502;-72
2023/12/22 09:11:18;;;;;;;14.18;2.67;;;;;;;2.64;76.90;98468.84;4913325;29;20477;-72
2023/12/22 09:13:44;;;;;;;14.60;2.75;;;;;;;2.67;76.58;98473.03;4914626;29;20072;-72
2023/12/22 09:16:14;;;;;;;17.83;3.10;;;;;;;2.72;75.63;98487.72;4913500;29;20075;-72
2023/12/22 09:18:44;;;;;;;18.77;2.30;;;;;;;2.75;74.68;98481.22;4912694;29;20048;-71
2023/12/22 09:21:11;;;;;;;14.32;1.98;;;;;;;2.83;74.82;98473.34;4913324;29;20404;-72
2023/12/22 09:23:38;;;;;;;12.50;2.72;;;;;;;2.90;73.41;98490.50;4913081;29;20481;-71
2023/12/22 09:26:05;;;;;;;18.27;3.22;;;;;;;2.84;74.49;98480.38;4913218;29;20107;-72
2023/12/22 09:28:31;;;;;;;14.18;2.10;;;;;;;2.92;73.71;98501.09;4913842;29;20056;-71
2023/12/22 09:30:58;;;;;;;16.92;2.13;;;;;;;2.96;74.35;98500.66;4913145;29;20126;-72
2023/12/22 09:33:25;;;;;;;13.75;2.22;;;;;;;3.09;73.56;98500.34;4913454;29;20083;-72
2023/12/22 09:35:51;;;;;;;14.75;2.30;;;;;;;3.11;73.65;98509.09;4914447;29;20059;-71
2023/12/22 09:38:18;;;;;;;19.30;2.38;;;;;;;3.18;71.83;98520.06;4913595;29;20440;-72
2023/12/22 09:40:45;;;;;;;16.48;2.92;;;;;;;3.21;71.47;98514.44;4914267;29;20047;-72
2023/12/22 09:43:15;;;;;;;21.75;3.17;;;;;;;3.18;70.73;98509.34;4913437;29;20075;-71
2023/12/22 09:45:42;;;;;;;26.33;3.58;;;;;;;3.08;72.07;98521.91;4913101;29;20103;-72
2023/12/22 09:48:15;;;;;;;30.75;3.22;;;;;;;3.24;72.90;98532.91;4912114;29;20071;-72
2023/12/22 09:50:43;;;;;;;18.48;2.42;;;;;;;3.33;72.53;98521.34;4913811;29;20050;-70
2023/12/22 09:53:14;;;;;;;15.38;2.70;;;;;;;3.64;70.06;98534.50;4914079;29;20489;-71
2023/12/22 09:55:45;;;;;;;18.13;2.50;;;;;;;3.57;70.25;98531.59;4932542;29;20441;-71
2023/12/22 09:58:14;;;;;;;20.52;2.85;;;;;;;3.64;70.26;98550.59;4930814;29;20420;-71
2023/12/22 10:00:42;;;;;;;24.05;2.65;;;;;;;3.74;69.99;98538.84;4933088;29;20078;-70
2023/12/22 10:03:11;;;;;;;19.52;3.00;;;;;;;4.08;68.31;98544.53;4931594;29;20061;-70
2023/12/22 10:05:41;;;;;;;23.27;3.03;;;;;;;4.29;68.09;98538.06;4931711;29;20481;-71
2023/12/22 10:08:11;;;;;;;26.23;2.97;;;;;;;4.63;65.44;98533.75;4932277;29;20055;-71
2023/12/22 10:10:43;;;;;;;19.73;2.27;;;;;;;4.85;63.79;98545.06;4932891;29;20043;-70
2023/12/22 10:13:10;;;;;;;15.85;2.97;;;;;;;4.67;64.79;98532.44;4931216;29;20908;-70
2023/12/22 10:15:41;;;;;;;20.70;3.83;;;;;;;4.68;65.28;98552.97;4932247;29;20056;-70
2023/12/22 10:18:09;;;;;;;27.40;3.30;;;;;;;4.95;62.70;98543.16;4931511;29;20075;-70
2023/12/22 10:20:36;;;;;;;16.48;2.70;;;;;;;4.72;63.08;98540.91;4931317;29;20051;-71
2023/12/22 10:23:03;;;;;;;21.83;3.22;;;;;;;4.43;62.96;98522.31;4931136;29;20056;-71
2023/12/22 10:25:30;;;;;;;21.27;2.63;;;;;;;4.60;64.73;98534.09;4931016;29;20501;-71
2023/12/22 10:27:57;;;;;;;22.00;3.20;;;;;;;4.83;63.27;98533.63;4931575;29;20079;-70
2023/12/22 10:30:27;;;;;;;29.17;3.58;;;;;;;4.75;63.28;98522.81;4932242;29;20040;-72
2023/12/22 10:32:54;;;;;;;23.87;4.13;;;;;;;4.49;63.97;98531.63;4932139;29;20131;-72
2023/12/22 10:35:22;;;;;;;17.05;2.95;;;;;;;4.67;63.09;98534.28;4932403;29;20368;-70
2023/12/22 10:37:52;;;;;;;20.85;3.33;;;;;;;4.70;63.04;98547.44;4931177;29;20044;-70
2023/12/22 10:40:20;;;;;;;15.15;2.50;;;;;;;4.79;62.34;98537.63;4932578;29;20047;-70
2023/12/22 10:42:48;;;;;;;22.08;3.35;;;;;;;4.69;62.68;98545.75;4932886;29;20476;-70
2023/12/22 10:45:17;;;;;;;15.13;2.97;;;;;;;4.87;62.89;98551.16;4931450;29;20408;-70
2023/12/22 10:47:44;;;;;;;24.67;2.67;;;;;;;5.03;62.64;98553.16;4925079;29;20058;-70
2023/12/22 10:50:12;;;;;;;27.90;3.60;;;;;;;5.14;62.51;98545.72;4912661;29;20051;-70
2023/12/22 10:52:38;;;;;;;17.80;3.22;;;;;;;5.23;61.47;98554.69;4895388;29;20391;-70
2023/12/22 10:55:05;;;;;;;21.10;3.40;;;;;;;5.47;60.17;98570.19;4895597;29;20139;-71
2023/12/22 10:57:37;;;;;;;15.40;2.25;;;;;;;5.35;59.42;98552.63;4894519;29;20057;-70
2023/12/22 11:00:07;;;;;;;11.77;2.72;;;;;;;5.33;59.82;98541.16;4893607;29;20108;-70
2023/12/22 11:02:35;;;;;;;22.17;3.20;;;;;;;5.37;58.97;98556.81;4893867;29;20051;-70
2023/12/22 11:05:05;;;;;;;20.02;3.10;;;;;;;5.41;58.78;98551.97;4896193;29;20059;-70
2023/12/22 11:07:37;;;;;;;15.90;1.77;;;;;;;5.29;58.60;98554.91;4898515;29;20087;-70
2023/12/22 11:10:06;;;;;;;19.58;2.45;;;;;;;5.22;59.88;98553.00;4898289;29;20056;-70
2023/12/22 11:12:37;;;;;;;19.75;2.90;;;;;;;5.00;59.82;98557.84;4898593;29;20087;-70
2023/12/22 11:15:06;;;;;;;17.98;3.25;;;;;;;4.86;60.54;98557.47;4897636;29;20140;-70
2023/12/22 11:17:39;;;;;;;19.02;2.65;;;;;;;4.70;60.00;98548.28;4898433;29;20470;-70
2023/12/22 11:20:14;;;;;;;18.65;2.42;;;;;;;4.59;62.10;98561.09;4897783;29;20056;-70
2023/12/22 11:22:43;;;;;;;18.42;2.50;;;;;;;4.62;61.91;98560.78;4898289;29;20461;-69
2023/12/22 11:25:10;;;;;;;13.40;2.65;;;;;;;4.78;61.76;98562.81;4896908;29;20090;-70
2023/12/22 11:27:43;;;;;;;18.05;3.17;;;;;;;4.94;60.81;98560.28;4896637;29;20048;-70
2023/12/22 11:30:11;;;;;;;18.05;2.47;;;;;;;4.99;60.73;98560.69;4897920;29;20053;-70
2023/12/22 11:32:39;;;;;;;25.70;3.63;;;;;;;5.18;59.96;98552.47;4897695;29;20067;-70
2023/12/22 11:35:07;;;;;;;19.20;2.83;;;;;;;5.31;59.46;98553.91;4896720;29;20510;-70
2023/12/22 11:37:36;;;;;;;11.18;2.03;;;;;;;5.29;59.43;98554.91;4898268;29;20151;-69
2023/12/22 11:40:05;;;;;;;16.42;2.92;;;;;;;5.45;58.72;98556.06;4897441;29;20417;-70